Shintaiei Maru — JD3904 — position and weather

sailwx.info

Track history (hours):
 
Tides and Currents Weather Stations Pressure Air Temp Water Temp Dewpoint Dewpoint Depression Visibility Wind Speed Wind Dir Waves Ship Positions

Shintaiei Maru

Last reported at 2017-Oct-10 21:21 UTC. Time now 2017-Oct-20 17:43 UTC.
Position N 35°25' E 139°47'.
Warning: this ship's position is 9 days out of date.

Length 75 m; draft 4.5 m.

Type: Cargo ship. MMSI: 431006906.

Date/timePositionNaut miles runAvg speedWind from/ knotsBaromVisibWave heightAir tempDewpointWater temp
2017-Oct-10 21:21N 35°25' E 139°47'612.2
2017-Oct-10 20:52N 35°20' E 139°44'411.7
2017-Oct-10 20:30N 35°16' E 139°47'612.0
2017-Oct-10 20:00N 35°10' E 139°46'611.7
2017-Oct-10 19:30N 35°04' E 139°45'611.5
2017-Oct-10 19:00N 34°59' E 139°43'  
2017-Oct-07 19:26N 34°05' E 134°59'612.2
2017-Oct-07 18:58N 34°10' E 134°59'1113.6
2017-Oct-07 18:09N 34°21' E 134°59'512.5
2017-Oct-07 17:44N 34°26' E 135°01'312.6
2017-Oct-07 17:30N 34°29' E 135°03'612.3
2017-Oct-07 17:00N 34°35' E 135°04'713.3
2017-Oct-07 16:30N 34°36' E 134°56'  
2017-Oct-05 10:25N 34°37' E 134°56'614.2
2017-Oct-05 10:00N 34°36' E 135°03'612.5
2017-Oct-05 09:30N 34°36' E 135°11'612.2
2017-Oct-05 09:00N 34°37' E 135°18'611.8
2017-Oct-05 08:30N 34°39' E 135°25'3 0.5
2017-Oct-05 02:56N 34°38' E 135°28'1 2.3
2017-Oct-05 02:30N 34°38' E 135°27'4 7.4
2017-Oct-05 02:00N 34°37' E 135°22'4 5.6
2017-Oct-05 01:19N 34°35' E 135°18'0 0.0
2017-Oct-05 00:55N 34°35' E 135°18'0 0.0
2017-Oct-05 00:25N 34°35' E 135°18'0 0.0
2017-Oct-04 23:55N 34°35' E 135°18'2 4.2
2017-Oct-04 23:31N 34°34' E 135°17'510.6
2017-Oct-04 23:00N 34°30' E 135°13'611.0
2017-Oct-04 22:31N 34°25' E 135°09'611.5
2017-Oct-04 21:59N 34°20' E 135°05'510.7
2017-Oct-04 21:30N 34°15' E 135°04'3 6.2
2017-Oct-04 21:01N 34°15' E 135°07'0 0.0
2017-Oct-04 20:28N 34°15' E 135°07'0 0.0
2017-Oct-04 19:58N 34°15' E 135°07'0 0.0
2017-Oct-04 19:22N 34°15' E 135°07'0 0.0
2017-Oct-04 18:58N 34°15' E 135°07'0 0.0
2017-Oct-04 18:28N 34°15' E 135°07'0 0.0
2017-Oct-04 17:58N 34°15' E 135°07'0 0.0
2017-Oct-04 17:28N 34°15' E 135°07'0 0.0
2017-Oct-04 16:58N 34°15' E 135°07'0 0.0
2017-Oct-04 16:28N 34°15' E 135°07'0 0.0
2017-Oct-04 15:55N 34°15' E 135°07'0 0.2
2017-Oct-04 15:28N 34°15' E 135°07'0 0.0
2017-Oct-04 14:58N 34°15' E 135°07'0 0.0
2017-Oct-04 14:28N 34°15' E 135°07'0 0.0
2017-Oct-04 13:58N 34°15' E 135°07'0 0.0
2017-Oct-04 13:30N 34°15' E 135°07'1 1.7
2017-Oct-04 13:00N 34°15' E 135°06'0 0.3
2017-Oct-04 12:30N 34°15' E 135°06'0 0.0
2017-Oct-04 12:00N 34°15' E 135°06'0 0.0
2017-Oct-04 11:30N 34°15' E 135°06'0 0.1
2017-Oct-04 11:00N 34°15' E 135°06'0 0.0
2017-Oct-04 10:30N 34°15' E 135°06'0 0.0
2017-Oct-04 10:00N 34°15' E 135°06'0 0.1
2017-Oct-04 09:30N 34°15' E 135°06'1 2.5
2017-Oct-04 09:01N 34°15' E 135°04'7 9.2
2017-Oct-04 08:14N 34°22' E 135°06'311.9
2017-Oct-04 07:57N 34°24' E 135°09'612.5
2017-Oct-04 07:30N 34°29' E 135°13'712.4
2017-Oct-04 06:57N 34°34' E 135°19'511.3
2017-Oct-04 06:30N 34°36' E 135°24'2 0.4
2017-Oct-03 23:53N 34°35' E 135°27'3 9.0
2017-Oct-03 23:30N 34°36' E 135°23'510.8
2017-Oct-03 23:00N 34°33' E 135°18'510.3
2017-Oct-03 22:30N 34°29' E 135°13'510.3
2017-Oct-03 22:00N 34°25' E 135°10'610.7
2017-Oct-03 21:26N 34°20' E 135°05'510.7
2017-Oct-03 20:57N 34°15' E 135°03'3 7.5
2017-Oct-03 20:31N 34°15' E 135°07'0 0.1
2017-Oct-03 20:00N 34°15' E 135°07'0 0.0
2017-Oct-03 19:30N 34°15' E 135°07'0 0.0
2017-Oct-03 18:57N 34°15' E 135°07'0 0.0
2017-Oct-03 18:30N 34°15' E 135°07'0 0.0
2017-Oct-03 18:00N 34°15' E 135°07'0 0.0
2017-Oct-03 17:30N 34°15' E 135°07'0 0.0
2017-Oct-03 17:00N 34°15' E 135°07'0 0.0
2017-Oct-03 16:30N 34°15' E 135°07'0 0.0
2017-Oct-03 16:00N 34°15' E 135°07'0 0.0
2017-Oct-03 15:27N 34°15' E 135°07'0 0.0
2017-Oct-03 15:00N 34°15' E 135°07'0 0.0
2017-Oct-03 14:00N 34°15' E 135°07'0 0.0
2017-Oct-03 13:30N 34°15' E 135°07'0 0.1
2017-Oct-03 13:00N 34°15' E 135°07'0 0.0
2017-Oct-03 12:28N 34°15' E 135°07'0 0.0
2017-Oct-03 12:01N 34°15' E 135°07'0 0.0
2017-Oct-03 11:31N 34°15' E 135°07'0 0.0
2017-Oct-03 10:58N 34°15' E 135°07'0 0.0
2017-Oct-03 10:28N 34°15' E 135°07'0 0.0
2017-Oct-03 09:58N 34°15' E 135°07'0 0.0
2017-Oct-03 09:31N 34°15' E 135°07'0 0.0
2017-Oct-03 08:57N 34°15' E 135°07'0 0.0
2017-Oct-03 08:27N 34°15' E 135°07'0 0.0
2017-Oct-03 08:00N 34°15' E 135°07'0 0.0
2017-Oct-03 07:31N 34°15' E 135°07'0 0.0
2017-Oct-03 07:01N 34°15' E 135°07'0 0.0
2017-Oct-03 06:27N 34°15' E 135°07'0 0.0
2017-Oct-03 06:00N 34°15' E 135°07'1 1.3
2017-Oct-03 05:30N 34°14' E 135°06'0 0.1
2017-Oct-03 04:58N 34°14' E 135°06'0 0.0
2017-Oct-03 04:28N 34°14' E 135°06'0 0.0
2017-Oct-03 03:58N 34°14' E 135°06'0 0.0
2017-Oct-03 03:28N 34°14' E 135°06'1 1.9
2017-Oct-03 03:00N 34°15' E 135°06'6 9.4
2017-Oct-03 02:19N 34°21' E 135°06'412.8
2017-Oct-03 02:00N 34°25' E 135°08'912.1
2017-Oct-03 01:17N 34°30' E 135°17'512.0
2017-Oct-03 00:51N 34°32' E 135°23'1 0.6
2017-Oct-02 23:00N 34°31' E 135°23'1 1.8
2017-Oct-02 22:26N 34°32' E 135°23'1 2.0
2017-Oct-02 21:59N 34°32' E 135°22'0 0.0
2017-Oct-02 21:29N 34°32' E 135°22'0 0.0
2017-Oct-02 20:59N 34°32' E 135°22'0 0.0
2017-Oct-02 20:29N 34°32' E 135°22'0 0.0
2017-Oct-02 19:17N 34°32' E 135°22'0 0.2
2017-Oct-02 18:59N 34°32' E 135°22'0 0.1
2017-Oct-02 18:17N 34°32' E 135°22'0 0.0
2017-Oct-02 17:59N 34°32' E 135°22'0 0.0
2017-Oct-02 17:29N 34°32' E 135°22'0 0.0
2017-Oct-02 16:59N 34°32' E 135°22'0 0.0
2017-Oct-02 16:29N 34°32' E 135°22'0 0.0
2017-Oct-02 15:59N 34°32' E 135°22'0 0.1
2017-Oct-02 15:29N 34°32' E 135°22'0 0.0
2017-Oct-02 14:53N 34°32' E 135°22'0 0.0
2017-Oct-02 14:29N 34°32' E 135°22'0 0.0
2017-Oct-02 13:53N 34°32' E 135°22'0 0.0
2017-Oct-02 13:11N 34°32' E 135°22'0 0.0
2017-Oct-02 12:53N 34°32' E 135°22'0 0.0
2017-Oct-02 12:23N 34°32' E 135°22'0 0.0
2017-Oct-02 11:59N 34°32' E 135°22'0 0.0
2017-Oct-02 11:29N 34°32' E 135°22'0 0.0
2017-Oct-02 10:59N 34°32' E 135°22'0 0.0
2017-Oct-02 10:23N 34°32' E 135°22'0 0.0
2017-Oct-02 09:53N 34°32' E 135°22'0 0.0
2017-Oct-02 08:53N 34°32' E 135°22'0 0.0
2017-Oct-02 08:29N 34°32' E 135°22'0 0.1
2017-Oct-02 07:53N 34°32' E 135°22'0 0.1
2017-Oct-02 07:29N 34°32' E 135°22'0 0.0
2017-Oct-02 06:59N 34°32' E 135°22'0 0.1
2017-Oct-02 06:29N 34°32' E 135°22'0 0.0
2017-Oct-02 05:59N 34°32' E 135°22'0 0.0
2017-Oct-02 05:26N 34°32' E 135°22'0 0.9
2017-Oct-02 04:56N 34°32' E 135°21'0 0.0
2017-Oct-02 04:26N 34°32' E 135°21'1 2.3
2017-Oct-02 04:00N 34°32' E 135°20'611.2
2017-Oct-02 03:30N 34°29' E 135°14'611.0
2017-Oct-02 02:59N 34°25' E 135°09'14 9.2
2017-Oct-02 01:30N 34°14' E 134°60'510.1
2017-Oct-02 01:00N 34°09' E 135°01'610.6
2017-Oct-02 00:26N 34°03' E 135°03'  
Track history (hours):
 
Tides and Currents Weather Stations Pressure Air Temp Water Temp Dewpoint Dewpoint Depression Visibility Wind Speed Wind Dir Waves Ship Positions

Shintaiei Maru

Last reported at 2017-Oct-10 21:21 UTC. Time now 2017-Oct-20 17:43 UTC.
Position N 35°25' E 139°47'.
Warning: this ship's position is 9 days out of date.

Length 75 m; draft 4.5 m.

Type: Cargo ship. MMSI: 431006906.

Date/timePositionNaut miles runAvg speedWind from/ knotsBaromVisibWave heightAir tempDewpointWater temp
2017-Oct-10 21:21N 35°25' E 139°47'612.2
2017-Oct-10 20:52N 35°20' E 139°44'411.7
2017-Oct-10 20:30N 35°16' E 139°47'612.0
2017-Oct-10 20:00N 35°10' E 139°46'611.7
2017-Oct-10 19:30N 35°04' E 139°45'611.5
2017-Oct-10 19:00N 34°59' E 139°43'  
2017-Oct-07 19:26N 34°05' E 134°59'612.2
2017-Oct-07 18:58N 34°10' E 134°59'1113.6
2017-Oct-07 18:09N 34°21' E 134°59'512.5
2017-Oct-07 17:44N 34°26' E 135°01'312.6
2017-Oct-07 17:30N 34°29' E 135°03'612.3
2017-Oct-07 17:00N 34°35' E 135°04'713.3
2017-Oct-07 16:30N 34°36' E 134°56'  
2017-Oct-05 10:25N 34°37' E 134°56'614.2
2017-Oct-05 10:00N 34°36' E 135°03'612.5
2017-Oct-05 09:30N 34°36' E 135°11'612.2
2017-Oct-05 09:00N 34°37' E 135°18'611.8
2017-Oct-05 08:30N 34°39' E 135°25'3 0.5
2017-Oct-05 02:56N 34°38' E 135°28'1 2.3
2017-Oct-05 02:30N 34°38' E 135°27'4 7.4
2017-Oct-05 02:00N 34°37' E 135°22'4 5.6
2017-Oct-05 01:19N 34°35' E 135°18'0 0.0
2017-Oct-05 00:55N 34°35' E 135°18'0 0.0
2017-Oct-05 00:25N 34°35' E 135°18'0 0.0
2017-Oct-04 23:55N 34°35' E 135°18'2 4.2
2017-Oct-04 23:31N 34°34' E 135°17'510.6
2017-Oct-04 23:00N 34°30' E 135°13'611.0
2017-Oct-04 22:31N 34°25' E 135°09'611.5
2017-Oct-04 21:59N 34°20' E 135°05'510.7
2017-Oct-04 21:30N 34°15' E 135°04'3 6.2
2017-Oct-04 21:01N 34°15' E 135°07'0 0.0
2017-Oct-04 20:28N 34°15' E 135°07'0 0.0
2017-Oct-04 19:58N 34°15' E 135°07'0 0.0
2017-Oct-04 19:22N 34°15' E 135°07'0 0.0
2017-Oct-04 18:58N 34°15' E 135°07'0 0.0
2017-Oct-04 18:28N 34°15' E 135°07'0 0.0
2017-Oct-04 17:58N 34°15' E 135°07'0 0.0
2017-Oct-04 17:28N 34°15' E 135°07'0 0.0
2017-Oct-04 16:58N 34°15' E 135°07'0 0.0
2017-Oct-04 16:28N 34°15' E 135°07'0 0.0
2017-Oct-04 15:55N 34°15' E 135°07'0 0.2
2017-Oct-04 15:28N 34°15' E 135°07'0 0.0
2017-Oct-04 14:58N 34°15' E 135°07'0 0.0
2017-Oct-04 14:28N 34°15' E 135°07'0 0.0
2017-Oct-04 13:58N 34°15' E 135°07'0 0.0
2017-Oct-04 13:30N 34°15' E 135°07'1 1.7
2017-Oct-04 13:00N 34°15' E 135°06'0 0.3
2017-Oct-04 12:30N 34°15' E 135°06'0 0.0
2017-Oct-04 12:00N 34°15' E 135°06'0 0.0
2017-Oct-04 11:30N 34°15' E 135°06'0 0.1
2017-Oct-04 11:00N 34°15' E 135°06'0 0.0
2017-Oct-04 10:30N 34°15' E 135°06'0 0.0
2017-Oct-04 10:00N 34°15' E 135°06'0 0.1
2017-Oct-04 09:30N 34°15' E 135°06'1 2.5
2017-Oct-04 09:01N 34°15' E 135°04'7 9.2
2017-Oct-04 08:14N 34°22' E 135°06'311.9
2017-Oct-04 07:57N 34°24' E 135°09'612.5
2017-Oct-04 07:30N 34°29' E 135°13'712.4
2017-Oct-04 06:57N 34°34' E 135°19'511.3
2017-Oct-04 06:30N 34°36' E 135°24'2 0.4
2017-Oct-03 23:53N 34°35' E 135°27'3 9.0
2017-Oct-03 23:30N 34°36' E 135°23'510.8
2017-Oct-03 23:00N 34°33' E 135°18'510.3
2017-Oct-03 22:30N 34°29' E 135°13'510.3
2017-Oct-03 22:00N 34°25' E 135°10'610.7
2017-Oct-03 21:26N 34°20' E 135°05'510.7
2017-Oct-03 20:57N 34°15' E 135°03'3 7.5
2017-Oct-03 20:31N 34°15' E 135°07'0 0.1
2017-Oct-03 20:00N 34°15' E 135°07'0 0.0
2017-Oct-03 19:30N 34°15' E 135°07'0 0.0
2017-Oct-03 18:57N 34°15' E 135°07'0 0.0
2017-Oct-03 18:30N 34°15' E 135°07'0 0.0
2017-Oct-03 18:00N 34°15' E 135°07'0 0.0
2017-Oct-03 17:30N 34°15' E 135°07'0 0.0
2017-Oct-03 17:00N 34°15' E 135°07'0 0.0
2017-Oct-03 16:30N 34°15' E 135°07'0 0.0
2017-Oct-03 16:00N 34°15' E 135°07'0 0.0
2017-Oct-03 15:27N 34°15' E 135°07'0 0.0
2017-Oct-03 15:00N 34°15' E 135°07'0 0.0
2017-Oct-03 14:00N 34°15' E 135°07'0 0.0
2017-Oct-03 13:30N 34°15' E 135°07'0 0.1
2017-Oct-03 13:00N 34°15' E 135°07'0 0.0
2017-Oct-03 12:28N 34°15' E 135°07'0 0.0
2017-Oct-03 12:01N 34°15' E 135°07'0 0.0
2017-Oct-03 11:31N 34°15' E 135°07'0 0.0
2017-Oct-03 10:58N 34°15' E 135°07'0 0.0
2017-Oct-03 10:28N 34°15' E 135°07'0 0.0
2017-Oct-03 09:58N 34°15' E 135°07'0 0.0
2017-Oct-03 09:31N 34°15' E 135°07'0 0.0
2017-Oct-03 08:57N 34°15' E 135°07'0 0.0
2017-Oct-03 08:27N 34°15' E 135°07'0 0.0
2017-Oct-03 08:00N 34°15' E 135°07'0 0.0
2017-Oct-03 07:31N 34°15' E 135°07'0 0.0
2017-Oct-03 07:01N 34°15' E 135°07'0 0.0
2017-Oct-03 06:27N 34°15' E 135°07'0 0.0
2017-Oct-03 06:00N 34°15' E 135°07'1 1.3
2017-Oct-03 05:30N 34°14' E 135°06'0 0.1
2017-Oct-03 04:58N 34°14' E 135°06'0 0.0
2017-Oct-03 04:28N 34°14' E 135°06'0 0.0
2017-Oct-03 03:58N 34°14' E 135°06'0 0.0
2017-Oct-03 03:28N 34°14' E 135°06'1 1.9
2017-Oct-03 03:00N 34°15' E 135°06'6 9.4
2017-Oct-03 02:19N 34°21' E 135°06'412.8
2017-Oct-03 02:00N 34°25' E 135°08'912.1
2017-Oct-03 01:17N 34°30' E 135°17'512.0
2017-Oct-03 00:51N 34°32' E 135°23'1 0.6
2017-Oct-02 23:00N 34°31' E 135°23'1 1.8
2017-Oct-02 22:26N 34°32' E 135°23'1 2.0
2017-Oct-02 21:59N 34°32' E 135°22'0 0.0
2017-Oct-02 21:29N 34°32' E 135°22'0 0.0
2017-Oct-02 20:59N 34°32' E 135°22'0 0.0
2017-Oct-02 20:29N 34°32' E 135°22'0 0.0
2017-Oct-02 19:17N 34°32' E 135°22'0 0.2
2017-Oct-02 18:59N 34°32' E 135°22'0 0.1
2017-Oct-02 18:17N 34°32' E 135°22'0 0.0
2017-Oct-02 17:59N 34°32' E 135°22'0 0.0
2017-Oct-02 17:29N 34°32' E 135°22'0 0.0
2017-Oct-02 16:59N 34°32' E 135°22'0 0.0
2017-Oct-02 16:29N 34°32' E 135°22'0 0.0
2017-Oct-02 15:59N 34°32' E 135°22'0 0.1
2017-Oct-02 15:29N 34°32' E 135°22'0 0.0
2017-Oct-02 14:53N 34°32' E 135°22'0 0.0
2017-Oct-02 14:29N 34°32' E 135°22'0 0.0
2017-Oct-02 13:53N 34°32' E 135°22'0 0.0
2017-Oct-02 13:11N 34°32' E 135°22'0 0.0
2017-Oct-02 12:53N 34°32' E 135°22'0 0.0
2017-Oct-02 12:23N 34°32' E 135°22'0 0.0
2017-Oct-02 11:59N 34°32' E 135°22'0 0.0
2017-Oct-02 11:29N 34°32' E 135°22'0 0.0
2017-Oct-02 10:59N 34°32' E 135°22'0 0.0
2017-Oct-02 10:23N 34°32' E 135°22'0 0.0
2017-Oct-02 09:53N 34°32' E 135°22'0 0.0
2017-Oct-02 08:53N 34°32' E 135°22'0 0.0
2017-Oct-02 08:29N 34°32' E 135°22'0 0.1
2017-Oct-02 07:53N 34°32' E 135°22'0 0.1
2017-Oct-02 07:29N 34°32' E 135°22'0 0.0
2017-Oct-02 06:59N 34°32' E 135°22'0 0.1
2017-Oct-02 06:29N 34°32' E 135°22'0 0.0
2017-Oct-02 05:59N 34°32' E 135°22'0 0.0
2017-Oct-02 05:26N 34°32' E 135°22'0 0.9
2017-Oct-02 04:56N 34°32' E 135°21'0 0.0
2017-Oct-02 04:26N 34°32' E 135°21'1 2.3
2017-Oct-02 04:00N 34°32' E 135°20'611.2
2017-Oct-02 03:30N 34°29' E 135°14'611.0
2017-Oct-02 02:59N 34°25' E 135°09'14 9.2
2017-Oct-02 01:30N 34°14' E 134°60'510.1
2017-Oct-02 01:00N 34°09' E 135°01'610.6
2017-Oct-02 00:26N 34°03' E 135°03'  

Dump ship's entire track history